Big Bear Station Historical Data
Daily Summary for March 9, 2019 Units:  English    Metric   Both
Next Day »
Daily Weekly Monthly Yearly Custom
  High: Low: Average:
Temperature: 40.3 °F 16.7 °F 26.6 °F
Dew Point: 28.8 °F 15.0 °F 21.9 °F
Humidity: 96% 49% 84%
Wind Speed: 5.3mph 0.0mph 0.9mph
Wind Gust: -999.0mph - -
Wind- - West
Pressure: 23.34 in 23.27 in -
Precipitation: 0.22 in    
Historical Graphs
 
 
Tabular Data for March 9, 2019
Time Temperature Dew Point Pressure Wind Wind Speed Wind Gust Humidity Rainfall Rate (Hourly)
00:11 21.4 °F 19.7 °F 23.34 in Calm   -999.0 mph 93% 0.00 in
00:27 21.0 °F 19.5 °F 23.34 in Calm   -999.0 mph 94% 0.00 in
00:42 21.4 °F 19.9 °F 23.34 in Calm   -999.0 mph 94% 0.00 in
00:57 21.4 °F 19.9 °F 23.34 in Calm   -999.0 mph 94% 0.00 in
01:12 21.4 °F 19.4 °F 23.33 in Calm   -999.0 mph 92% 0.00 in
01:28 20.1 °F 18.4 °F 23.33 in Calm   -999.0 mph 93% 0.00 in
01:43 19.6 °F 17.9 °F 23.32 in Calm   -999.0 mph 93% 0.00 in
01:58 19.0 °F 17.3 °F 23.32 in Calm   -999.0 mph 93% 0.00 in
02:13 18.7 °F 17.3 °F 23.32 in Calm   -999.0 mph 94% 0.00 in
02:28 18.1 °F 16.9 °F 23.31 in Calm   -999.0 mph 95% 0.00 in
02:44 18.3 °F 17.4 °F 23.31 in Calm   -999.0 mph 96% 0.00 in
02:59 17.8 °F 16.6 °F 23.30 in Calm   -999.0 mph 95% 0.00 in
03:14 17.4 °F 16.2 °F 23.30 in Calm   -999.0 mph 95% 0.00 in
03:29 17.2 °F 15.8 °F 23.30 in Calm   -999.0 mph 94% 0.00 in
03:44 17.1 °F 15.7 °F 23.30 in Calm   -999.0 mph 94% 0.00 in
04:00 17.1 °F 15.9 °F 23.30 in Calm   -999.0 mph 95% 0.00 in
04:15 17.1 °F 15.9 °F 23.31 in Calm   -999.0 mph 95% 0.00 in
04:30 17.4 °F 16.2 °F 23.31 in Calm   -999.0 mph 95% 0.00 in
04:45 17.1 °F 15.9 °F 23.31 in Calm   -999.0 mph 95% 0.00 in
05:00 17.1 °F 15.7 °F 23.31 in Calm   -999.0 mph 94% 0.00 in
05:16 16.9 °F 15.5 °F 23.31 in Calm   -999.0 mph 94% 0.00 in
05:31 16.9 °F 15.5 °F 23.31 in Calm   -999.0 mph 94% 0.00 in
05:46 17.1 °F 15.4 °F 23.31 in Calm   -999.0 mph 93% 0.00 in
06:01 16.9 °F 15.0 °F 23.31 in Calm   -999.0 mph 92% 0.00 in
06:16 16.7 °F 15.0 °F 23.30 in Calm   -999.0 mph 93% 0.00 in
06:32 16.9 °F 15.5 °F 23.31 in Calm   -999.0 mph 94% 0.00 in
06:47 16.9 °F 15.5 °F 23.31 in Calm   -999.0 mph 94% 0.00 in
07:02 17.2 °F 16.0 °F 23.31 in Calm   -999.0 mph 95% 0.00 in
07:17 18.5 °F 17.6 °F 23.31 in Calm   -999.0 mph 96% 0.00 in
07:33 19.6 °F 18.4 °F 23.32 in Calm   -999.0 mph 95% 0.00 in
07:48 20.7 °F 19.2 °F 23.32 in Calm   -999.0 mph 94% 0.00 in
08:03 21.6 °F 19.6 °F 23.32 in Calm   -999.0 mph 92% 0.00 in
08:19 22.8 °F 20.3 °F 23.32 in Calm   -999.0 mph 90% 0.00 in
08:34 23.5 °F 21.3 °F 23.32 in Calm   -999.0 mph 91% 0.00 in
08:49 25.5 °F 21.9 °F 23.33 in NW 1.7 mph -999.0 mph 86% 0.00 in
09:04 27.0 °F 21.4 °F 23.33 in Calm   -999.0 mph 79% 0.00 in
09:20 28.8 °F 22.5 °F 23.33 in NW 3.2 mph -999.0 mph 77% 0.00 in
09:35 30.0 °F 22.7 °F 23.33 in Calm   -999.0 mph 74% 0.00 in
09:50 31.8 °F 23.1 °F 23.33 in NW 2.2 mph -999.0 mph 70% 0.00 in
10:06 33.3 °F 24.6 °F 23.34 in Calm   -999.0 mph 70% 0.00 in
10:21 35.4 °F 25.2 °F 23.34 in Calm   -999.0 mph 66% 0.00 in
10:36 34.5 °F 27.1 °F 23.34 in SSW 1.7 mph -999.0 mph 74% 0.00 in
10:51 35.4 °F 26.6 °F 23.34 in Calm   -999.0 mph 70% 0.00 in
11:07 36.1 °F 25.5 °F 23.34 in NW 3.2 mph -999.0 mph 65% 0.00 in
11:22 36.9 °F 28.7 °F 23.34 in North 2.7 mph -999.0 mph 72% 0.00 in
11:37 37.0 °F 25.6 °F 23.34 in NNW 2.7 mph -999.0 mph 63% 0.00 in
11:53 38.1 °F 25.4 °F 23.34 in WNW 3.7 mph -999.0 mph 60% 0.00 in
12:08 38.5 °F 26.2 °F 23.33 in NNW 3.7 mph -999.0 mph 61% 0.00 in
12:23 38.1 °F 22.9 °F 23.33 in Calm   -999.0 mph 54% 0.00 in
12:38 38.8 °F 24.4 °F 23.32 in ENE 4.2 mph -999.0 mph 56% 0.00 in
12:53 40.3 °F 25.0 °F 23.31 in NNW 5.3 mph -999.0 mph 54% 0.00 in
13:09 39.2 °F 21.6 °F 23.31 in NW 4.7 mph -999.0 mph 49% 0.00 in
13:24 39.6 °F 28.8 °F 23.31 in NW 4.2 mph -999.0 mph 65% 0.00 in
13:39 37.8 °F 25.6 °F 23.31 in South 3.7 mph -999.0 mph 61% 0.00 in
13:54 38.8 °F 24.9 °F 23.31 in NW 2.2 mph -999.0 mph 57% 0.00 in
14:09 36.1 °F 25.1 °F 23.31 in NW 2.7 mph -999.0 mph 64% 0.00 in
14:25 36.3 °F 25.3 °F 23.31 in NW 2.7 mph -999.0 mph 64% 0.00 in
14:40 36.0 °F 25.7 °F 23.30 in NW 3.2 mph -999.0 mph 66% 0.00 in
14:55 35.2 °F 26.0 °F 23.30 in NE 2.7 mph -999.0 mph 69% 0.00 in
15:11 35.4 °F 26.2 °F 23.30 in North 2.7 mph -999.0 mph 69% 0.00 in
15:26 35.2 °F 27.1 °F 23.30 in NNW 3.7 mph -999.0 mph 72% 0.00 in
15:41 34.3 °F 26.9 °F 23.30 in Calm   -999.0 mph 74% 0.00 in
15:56 34.3 °F 26.9 °F 23.30 in Calm   -999.0 mph 74% 0.00 in
16:11 33.1 °F 26.0 °F 23.29 in NNE 2.2 mph -999.0 mph 75% 0.00 in
16:27 32.5 °F 27.0 °F 23.29 in NW 2.2 mph -999.0 mph 80% 0.00 in
16:42 31.5 °F 27.2 °F 23.28 in WNW 3.7 mph -999.0 mph 84% 0.00 in
16:57 30.6 °F 27.2 °F 23.28 in North 3.2 mph -999.0 mph 87% 0.00 in
17:12 29.7 °F 26.3 °F 23.28 in Calm   -999.0 mph 87% 0.00 in
17:28 29.1 °F 26.0 °F 23.28 in WNW 3.2 mph -999.0 mph 88% 0.00 in
17:43 28.2 °F 25.1 °F 23.28 in WSW 1.7 mph -999.0 mph 88% 0.00 in
17:59 27.7 °F 24.6 °F 23.29 in Calm   -999.0 mph 88% 0.00 in
18:14 27.1 °F 24.0 °F 23.28 in Calm   -999.0 mph 88% 0.00 in
18:30 27.1 °F 24.0 °F 23.28 in Calm   -999.0 mph 88% 0.00 in
18:45 27.0 °F 24.2 °F 23.29 in Calm   -999.0 mph 89% 0.00 in
19:00 26.8 °F 24.0 °F 23.28 in Calm   -999.0 mph 89% 0.00 in
19:15 27.0 °F 23.9 °F 23.29 in Calm   -999.0 mph 88% 0.00 in
19:30 27.1 °F 24.3 °F 23.28 in SE 2.2 mph -999.0 mph 89% 0.00 in
19:46 27.3 °F 24.8 °F 23.28 in Calm   -999.0 mph 90% 0.00 in
20:01 27.1 °F 24.6 °F 23.28 in South 2.7 mph -999.0 mph 90% 0.00 in
20:16 27.1 °F 24.3 °F 23.29 in Calm   -999.0 mph 89% 0.00 in
20:32 27.0 °F 24.2 °F 23.29 in Calm   -999.0 mph 89% 0.00 in
20:47 26.6 °F 24.1 °F 23.29 in NW 1.1 mph -999.0 mph 90% 0.00 in
21:02 26.6 °F 24.1 °F 23.28 in Calm   -999.0 mph 90% 0.00 in
21:17 26.4 °F 24.1 °F 23.28 in Calm   -999.0 mph 91% 0.00 in
21:33 26.2 °F 23.9 °F 23.28 in Calm   -999.0 mph 91% 0.00 in
21:48 26.1 °F 23.8 °F 23.28 in Calm   -999.0 mph 91% 0.00 in
22:03 25.7 °F 23.4 °F 23.28 in Calm   -999.0 mph 91% 0.00 in
22:18 25.0 °F 22.7 °F 23.28 in Calm   -999.0 mph 91% 0.00 in
22:34 24.3 °F 22.3 °F 23.28 in Calm   -999.0 mph 92% 0.00 in
22:49 23.9 °F 21.9 °F 23.27 in Calm   -999.0 mph 92% 0.00 in
23:04 23.4 °F 21.4 °F 23.28 in Calm   -999.0 mph 92% 0.00 in
23:19 22.6 °F 20.6 °F 23.27 in Calm   -999.0 mph 92% 0.00 in
23:34 22.3 °F 20.6 °F 23.27 in Calm   -999.0 mph 93% 0.00 in
23:50 22.1 °F 18.8 °F 23.27 in Calm   -999.0 mph 87% 0.00 in
Big Bear CA Weather